Airfield :
LOGIN :

Register | Disclaimer

   EN    FR    IT 

 










Legend :    VFR   Marginal VFR   IFR   Intensive IFR   Very Intensive IFR
Visi :
Ceiling :
>= 8 km
>= 3000ft
5 to 8 km
1000 to 3000 ft
1500m to 5 km
500 to 1000 ft
800 to 1500m
200 to 500 ft
< 800m
< 200 ft
Symbols :   Thunderstorms  Fog  Heavy snow  Heavy precipitations  Wind > 20 kt
SIGMETs :     Misc.  Thunderstorms  Icing  Turbulence  Mountain Waves  Volcanic Ashes







- Airport Elevation : 610 ft
- IATA code : VXO


ESMX - Växjö Kronoberg

CURRENT METAR :
  • 212020Z AUTO 13005KT 080V160 9999 NCD 11/M01 Q1022

EXPIRED METARs :
  • 211950Z AUTO 14005KT 100V160 9999 NCD 12/M02 Q1022
  • 211920Z AUTO 13005KT 090V160 9999 NCD 13/M01 Q1021
  • 211850Z AUTO 15006KT 090V170 9999 NCD 14/M01 Q1021
  • 211820Z AUTO 14008KT 110V180 9999 NCD 15/M01 Q1021
  • 211750Z AUTO 13007KT 090V150 9999 NCD 16/M01 Q1021
  • 211720Z AUTO 14007KT 090V170 9999 NCD 18/M01 Q1020

Expired Forecast.
No reported NOTAMs for that airfield.



MET'MAP, your aeronautical weather chart ! - Copyright ORBIFLY December 2007 - Disclaimer

ORBIFLY MET'MAP TEAM :

Programming & Development : Alexandra Zaïnal
Concept & Development : Baudouin d'Aumeries
Co-Development & Prog : Marc-Olivier Méhu
Technical & hardware support : Manuel Goepfert

Contact : metmap@orbifly.com




SOURCES & CREDITS :

   NOAA